sensor_id;sensor_type;location;lat;lon;timestamp;pressure;altitude;pressure_sealevel;temperature;humidity
70103;BME280;57470;50.034;15.256;2024-01-11T00:02:20;100741.78;;;-8.06;77.03
70103;BME280;57470;50.034;15.256;2024-01-11T00:04:46;100747.97;;;-8.00;77.25
70103;BME280;57470;50.034;15.256;2024-01-11T00:07:11;100740.41;;;-7.92;77.03
70103;BME280;57470;50.034;15.256;2024-01-11T00:09:41;100741.94;;;-8.00;77.18
70103;BME280;57470;50.034;15.256;2024-01-11T00:12:07;100754.00;;;-7.99;77.46
70103;BME280;57470;50.034;15.256;2024-01-11T00:14:33;100748.47;;;-8.13;78.65
70103;BME280;57470;50.034;15.256;2024-01-11T00:16:58;100750.16;;;-8.15;77.92
70103;BME280;57470;50.034;15.256;2024-01-11T00:19:23;100744.13;;;-8.14;77.52
70103;BME280;57470;50.034;15.256;2024-01-11T00:21:49;100731.03;;;-8.21;77.49
70103;BME280;57470;50.034;15.256;2024-01-11T00:24:14;100734.53;;;-8.19;76.88
70103;BME280;57470;50.034;15.256;2024-01-11T00:26:40;100728.28;;;-8.27;77.14
70103;BME280;57470;50.034;15.256;2024-01-11T00:29:06;100723.19;;;-8.26;76.51
70103;BME280;57470;50.034;15.256;2024-01-11T00:31:32;100734.66;;;-8.15;77.16
70103;BME280;57470;50.034;15.256;2024-01-11T00:33:57;100741.53;;;-8.15;77.04
70103;BME280;57470;50.034;15.256;2024-01-11T00:36:23;100732.72;;;-8.23;77.35
70103;BME280;57470;50.034;15.256;2024-01-11T00:38:49;100727.38;;;-8.29;77.36
70103;BME280;57470;50.034;15.256;2024-01-11T00:41:14;100722.00;;;-8.39;76.55
70103;BME280;57470;50.034;15.256;2024-01-11T00:43:39;100715.75;;;-8.47;77.57
70103;BME280;57470;50.034;15.256;2024-01-11T00:46:05;100729.66;;;-8.42;77.88
70103;BME280;57470;50.034;15.256;2024-01-11T00:48:30;100712.16;;;-8.53;77.75
70103;BME280;57470;50.034;15.256;2024-01-11T00:50:55;100701.66;;;-8.89;79.11
70103;BME280;57470;50.034;15.256;2024-01-11T00:53:21;100713.59;;;-8.63;78.41
70103;BME280;57470;50.034;15.256;2024-01-11T00:55:46;100707.19;;;-8.76;77.81
70103;BME280;57470;50.034;15.256;2024-01-11T00:58:11;100708.63;;;-8.55;77.31
70103;BME280;57470;50.034;15.256;2024-01-11T01:00:37;100715.50;;;-8.56;78.12
70103;BME280;57470;50.034;15.256;2024-01-11T01:03:02;100713.31;;;-8.42;76.88
70103;BME280;57470;50.034;15.256;2024-01-11T01:05:28;100715.19;;;-8.37;76.92
70103;BME280;57470;50.034;15.256;2024-01-11T01:07:53;100704.44;;;-8.52;76.53
70103;BME280;57470;50.034;15.256;2024-01-11T01:10:19;100715.97;;;-8.39;77.27
70103;BME280;57470;50.034;15.256;2024-01-11T01:12:44;100698.13;;;-8.63;76.21
70103;BME280;57470;50.034;15.256;2024-01-11T01:15:09;100712.25;;;-8.49;76.34
70103;BME280;57470;50.034;15.256;2024-01-11T01:17:35;100713.28;;;-8.44;76.23
70103;BME280;57470;50.034;15.256;2024-01-11T01:20:00;100720.34;;;-8.37;76.29
70103;BME280;57470;50.034;15.256;2024-01-11T01:22:26;100708.78;;;-8.51;76.75
70103;BME280;57470;50.034;15.256;2024-01-11T01:24:51;100708.78;;;-8.51;76.69
70103;BME280;57470;50.034;15.256;2024-01-11T01:27:16;100714.94;;;-8.46;76.68
70103;BME280;57470;50.034;15.256;2024-01-11T01:29:42;100707.50;;;-8.65;76.96
70103;BME280;57470;50.034;15.256;2024-01-11T01:32:07;100713.31;;;-8.42;76.17
70103;BME280;57470;50.034;15.256;2024-01-11T01:34:33;100694.16;;;-8.82;76.79
70103;BME280;57470;50.034;15.256;2024-01-11T01:36:58;100709.09;;;-8.70;76.89
70103;BME280;57470;50.034;15.256;2024-01-11T01:39:24;100707.56;;;-8.63;77.25
70103;BME280;57470;50.034;15.256;2024-01-11T01:41:49;100706.47;;;-8.72;76.73
70103;BME280;57470;50.034;15.256;2024-01-11T01:44:15;100710.28;;;-8.57;76.79
70103;BME280;57470;50.034;15.256;2024-01-11T01:46:40;100698.13;;;-8.63;76.18
70103;BME280;57470;50.034;15.256;2024-01-11T01:49:06;100684.19;;;-8.99;78.66
70103;BME280;57470;50.034;15.256;2024-01-11T01:51:32;100706.78;;;-8.61;77.26
70103;BME280;57470;50.034;15.256;2024-01-11T01:53:58;100697.97;;;-8.69;76.50
70103;BME280;57470;50.034;15.256;2024-01-11T01:56:25;100683.94;;;-8.79;76.87
70103;BME280;57470;50.034;15.256;2024-01-11T01:58:52;100684.13;;;-8.71;76.72
70103;BME280;57470;50.034;15.256;2024-01-11T02:01:19;100682.34;;;-8.74;77.85
70103;BME280;57470;50.034;15.256;2024-01-11T02:03:46;100683.22;;;-8.73;77.05
70103;BME280;57470;50.034;15.256;2024-01-11T02:06:12;100674.19;;;-8.89;76.84
70103;BME280;57470;50.034;15.256;2024-01-11T02:08:39;100682.22;;;-8.78;76.99
70103;BME280;57470;50.034;15.256;2024-01-11T02:11:07;100676.19;;;-8.79;77.15
70103;BME280;57470;50.034;15.256;2024-01-11T02:13:33;100671.25;;;-8.71;76.35
70103;BME280;57470;50.034;15.256;2024-01-11T02:15:58;100669.28;;;-8.80;75.89
70103;BME280;57470;50.034;15.256;2024-01-11T02:18:24;100667.78;;;-8.72;75.73
70103;BME280;57470;50.034;15.256;2024-01-11T02:20:49;100678.84;;;-8.76;75.97
70103;BME280;57470;50.034;15.256;2024-01-11T02:23:19;100667.69;;;-8.75;76.30
70103;BME280;57470;50.034;15.256;2024-01-11T02:25:48;100668.66;;;-8.71;76.16
70103;BME280;57470;50.034;15.256;2024-01-11T02:28:15;100659.09;;;-8.75;75.98
70103;BME280;57470;50.034;15.256;2024-01-11T02:30:41;100650.69;;;-8.99;76.14
70103;BME280;57470;50.034;15.256;2024-01-11T02:33:09;100666.56;;;-8.84;76.04
70103;BME280;57470;50.034;15.256;2024-01-11T02:35:36;100655.22;;;-8.91;75.76
70103;BME280;57470;50.034;15.256;2024-01-11T02:38:06;100667.91;;;-8.98;75.91
70103;BME280;57470;50.034;15.256;2024-01-11T02:40:33;100669.97;;;-8.85;76.20
70103;BME280;57470;50.034;15.256;2024-01-11T02:43:10;100669.03;;;-8.89;75.83
70103;BME280;57470;50.034;15.256;2024-01-11T02:45:37;100659.53;;;-8.90;76.01
70103;BME280;57470;50.034;15.256;2024-01-11T02:48:04;100655.72;;;-9.04;75.55
70103;BME280;57470;50.034;15.256;2024-01-11T02:50:32;100671.72;;;-8.84;76.47
70103;BME280;57470;50.034;15.256;2024-01-11T02:52:59;100677.97;;;-8.76;75.80
70103;BME280;57470;50.034;15.256;2024-01-11T02:55:26;100674.22;;;-8.87;75.93
70103;BME280;57470;50.034;15.256;2024-01-11T02:57:52;100660.25;;;-8.95;75.72
70103;BME280;57470;50.034;15.256;2024-01-11T03:00:19;100677.69;;;-8.87;75.32
70103;BME280;57470;50.034;15.256;2024-01-11T03:02:46;100663.81;;;-9.20;77.08
70103;BME280;57470;50.034;15.256;2024-01-11T03:05:13;100669.75;;;-9.23;78.05
70103;BME280;57470;50.034;15.256;2024-01-11T03:07:40;100680.56;;;-9.06;76.77
70103;BME280;57470;50.034;15.256;2024-01-11T03:10:08;100680.69;;;-9.01;76.46
70103;BME280;57470;50.034;15.256;2024-01-11T03:12:35;100644.72;;;-9.55;77.04
70103;BME280;57470;50.034;15.256;2024-01-11T03:15:02;100666.53;;;-9.16;78.60
70103;BME280;57470;50.034;15.256;2024-01-11T03:17:28;100669.53;;;-9.00;77.12
70103;BME280;57470;50.034;15.256;2024-01-11T03:19:54;100650.97;;;-9.47;79.98
70103;BME280;57470;50.034;15.256;2024-01-11T03:22:19;100657.88;;;-9.18;78.65
70103;BME280;57470;50.034;15.256;2024-01-11T03:24:45;100671.03;;;-9.08;78.65
70103;BME280;57470;50.034;15.256;2024-01-11T03:27:10;100669.31;;;-9.08;78.83
70103;BME280;57470;50.034;15.256;2024-01-11T03:29:35;100683.72;;;-8.86;78.53
70103;BME280;57470;50.034;15.256;2024-01-11T03:32:01;100668.34;;;-9.12;78.20
70103;BME280;57470;50.034;15.256;2024-01-11T03:34:26;100678.03;;;-9.04;78.27
70103;BME280;57470;50.034;15.256;2024-01-11T03:36:52;100682.91;;;-8.84;78.13
70103;BME280;57470;50.034;15.256;2024-01-11T03:39:17;100671.50;;;-8.92;77.79
70103;BME280;57470;50.034;15.256;2024-01-11T03:41:46;100663.41;;;-9.05;77.26
70103;BME280;57470;50.034;15.256;2024-01-11T03:44:12;100656.28;;;-9.14;76.78
70103;BME280;57470;50.034;15.256;2024-01-11T03:46:38;100670.41;;;-9.00;76.54
70103;BME280;57470;50.034;15.256;2024-01-11T03:49:03;100660.97;;;-9.29;76.40
70103;BME280;57470;50.034;15.256;2024-01-11T03:51:29;100667.09;;;-9.26;76.57
70103;BME280;57470;50.034;15.256;2024-01-11T03:53:54;100673.50;;;-9.12;76.94
70103;BME280;57470;50.034;15.256;2024-01-11T03:56:19;100675.25;;;-9.11;76.96
70103;BME280;57470;50.034;15.256;2024-01-11T03:58:45;100685.16;;;-8.96;76.55
70103;BME280;57470;50.034;15.256;2024-01-11T04:01:10;100688.91;;;-9.15;76.67
70103;BME280;57470;50.034;15.256;2024-01-11T04:03:36;100688.34;;;-9.03;76.75
70103;BME280;57470;50.034;15.256;2024-01-11T04:06:03;100693.91;;;-9.19;76.44
70103;BME280;57470;50.034;15.256;2024-01-11T04:08:28;100683.97;;;-9.35;76.68
70103;BME280;57470;50.034;15.256;2024-01-11T04:10:54;100690.28;;;-9.26;79.13
70103;BME280;57470;50.034;15.256;2024-01-11T04:13:19;100693.78;;;-9.24;77.69
70103;BME280;57470;50.034;15.256;2024-01-11T04:15:44;100681.53;;;-9.31;78.76
70103;BME280;57470;50.034;15.256;2024-01-11T04:18:10;100691.78;;;-9.04;78.11
70103;BME280;57470;50.034;15.256;2024-01-11T04:20:35;100701.03;;;-9.11;77.41
70103;BME280;57470;50.034;15.256;2024-01-11T04:23:00;100711.44;;;-9.07;77.38
70103;BME280;57470;50.034;15.256;2024-01-11T04:25:26;100712.09;;;-9.15;77.83
70103;BME280;57470;50.034;15.256;2024-01-11T04:27:51;100689.13;;;-9.35;77.41
70103;BME280;57470;50.034;15.256;2024-01-11T04:30:16;100649.16;;;-10.32;81.53
70103;BME280;57470;50.034;15.256;2024-01-11T04:32:42;100670.81;;;-9.71;82.81
70103;BME280;57470;50.034;15.256;2024-01-11T04:35:07;100689.41;;;-9.26;79.79
70103;BME280;57470;50.034;15.256;2024-01-11T04:37:34;100683.75;;;-9.15;79.09
70103;BME280;57470;50.034;15.256;2024-01-11T04:40:01;100676.88;;;-9.14;78.63
70103;BME280;57470;50.034;15.256;2024-01-11T04:42:29;100685.06;;;-8.99;78.05
70103;BME280;57470;50.034;15.256;2024-01-11T04:44:54;100672.72;;;-9.09;77.93
70103;BME280;57470;50.034;15.256;2024-01-11T04:47:20;100668.34;;;-9.12;77.60
70103;BME280;57470;50.034;15.256;2024-01-11T04:49:45;100656.34;;;-9.13;76.81
70103;BME280;57470;50.034;15.256;2024-01-11T04:52:11;100657.97;;;-9.15;77.11
70103;BME280;57470;50.034;15.256;2024-01-11T04:54:36;100663.31;;;-9.37;77.83
70103;BME280;57470;50.034;15.256;2024-01-11T04:57:03;100670.84;;;-9.43;78.19
70103;BME280;57470;50.034;15.256;2024-01-11T04:59:28;100659.09;;;-9.35;77.61
70103;BME280;57470;50.034;15.256;2024-01-11T05:01:54;100656.63;;;-9.30;77.19
70103;BME280;57470;50.034;15.256;2024-01-11T05:04:19;100650.84;;;-9.23;76.82
70103;BME280;57470;50.034;15.256;2024-01-11T05:06:44;100650.91;;;-9.22;76.63
70103;BME280;57470;50.034;15.256;2024-01-11T05:09:10;100649.72;;;-9.33;75.77
70103;BME280;57470;50.034;15.256;2024-01-11T05:11:35;100644.94;;;-9.49;76.31
70103;BME280;57470;50.034;15.256;2024-01-11T05:14:00;100653.38;;;-9.53;77.14
70103;BME280;57470;50.034;15.256;2024-01-11T05:16:27;100662.84;;;-9.52;77.71
70103;BME280;57470;50.034;15.256;2024-01-11T05:18:53;100677.50;;;-9.21;77.61
70103;BME280;57470;50.034;15.256;2024-01-11T05:21:20;100666.16;;;-9.28;77.41
70103;BME280;57470;50.034;15.256;2024-01-11T05:23:45;100651.53;;;-9.29;78.04
70103;BME280;57470;50.034;15.256;2024-01-11T05:26:13;100668.50;;;-9.35;77.13
70103;BME280;57470;50.034;15.256;2024-01-11T05:28:38;100678.22;;;-9.27;77.47
70103;BME280;57470;50.034;15.256;2024-01-11T05:31:11;100685.16;;;-8.96;77.45
70103;BME280;57470;50.034;15.256;2024-01-11T05:33:39;100686.22;;;-9.18;77.54
70103;BME280;57470;50.034;15.256;2024-01-11T05:36:05;100662.97;;;-9.48;77.16
70103;BME280;57470;50.034;15.256;2024-01-11T05:38:31;100678.22;;;-9.27;77.95
70103;BME280;57470;50.034;15.256;2024-01-11T05:40:57;100667.97;;;-9.80;80.27
70103;BME280;57470;50.034;15.256;2024-01-11T05:43:22;100676.44;;;-9.56;79.73
70103;BME280;57470;50.034;15.256;2024-01-11T05:45:49;100673.50;;;-9.68;78.10
70103;BME280;57470;50.034;15.256;2024-01-11T05:48:15;100675.72;;;-9.52;78.24
70103;BME280;57470;50.034;15.256;2024-01-11T05:50:40;100656.38;;;-9.95;77.70
70103;BME280;57470;50.034;15.256;2024-01-11T05:53:06;100646.59;;;-10.32;80.19
70103;BME280;57470;50.034;15.256;2024-01-11T05:55:31;100660.22;;;-10.07;80.40
70103;BME280;57470;50.034;15.256;2024-01-11T05:57:57;100659.22;;;-9.86;79.40
70103;BME280;57470;50.034;15.256;2024-01-11T06:00:22;100675.16;;;-9.70;78.68
70103;BME280;57470;50.034;15.256;2024-01-11T06:02:48;100678.50;;;-9.73;78.63
70103;BME280;57470;50.034;15.256;2024-01-11T06:05:13;100682.72;;;-9.75;78.29
70103;BME280;57470;50.034;15.256;2024-01-11T06:07:39;100662.13;;;-9.75;77.71
70103;BME280;57470;50.034;15.256;2024-01-11T06:10:05;100654.56;;;-9.97;79.09
70103;BME280;57470;50.034;15.256;2024-01-11T06:12:31;100659.53;;;-9.75;78.24
70103;BME280;57470;50.034;15.256;2024-01-11T06:14:56;100676.66;;;-9.50;77.29
70103;BME280;57470;50.034;15.256;2024-01-11T06:17:23;100677.25;;;-9.59;78.37
70103;BME280;57470;50.034;15.256;2024-01-11T06:19:48;100614.94;;;-10.56;79.92
70103;BME280;57470;50.034;15.256;2024-01-11T06:22:14;100667.78;;;-9.87;79.35
70103;BME280;57470;50.034;15.256;2024-01-11T06:24:39;100634.56;;;-10.33;80.32
70103;BME280;57470;50.034;15.256;2024-01-11T06:27:04;100645.72;;;-10.32;82.06
70103;BME280;57470;50.034;15.256;2024-01-11T06:29:30;100648.50;;;-10.26;81.66
70103;BME280;57470;50.034;15.256;2024-01-11T06:31:55;100643.22;;;-10.54;83.40
70103;BME280;57470;50.034;15.256;2024-01-11T06:34:21;100674.59;;;-10.14;81.67
70103;BME280;57470;50.034;15.256;2024-01-11T06:36:46;100684.03;;;-9.88;80.05
70103;BME280;57470;50.034;15.256;2024-01-11T06:39:11;100674.69;;;-10.11;79.49
70103;BME280;57470;50.034;15.256;2024-01-11T06:41:37;100675.91;;;-10.00;80.02
70103;BME280;57470;50.034;15.256;2024-01-11T06:44:03;100694.53;;;-9.81;78.81
70103;BME280;57470;50.034;15.256;2024-01-11T06:46:29;100708.09;;;-9.60;77.80
70103;BME280;57470;50.034;15.256;2024-01-11T06:48:55;100709.03;;;-9.57;77.83
70103;BME280;57470;50.034;15.256;2024-01-11T06:51:22;100699.13;;;-9.44;77.02
70103;BME280;57470;50.034;15.256;2024-01-11T06:53:48;100703.19;;;-9.53;76.44
70103;BME280;57470;50.034;15.256;2024-01-11T06:56:18;100704.19;;;-9.48;76.56
70103;BME280;57470;50.034;15.256;2024-01-11T06:58:44;100701.88;;;-9.40;77.05
70103;BME280;57470;50.034;15.256;2024-01-11T07:01:10;100698.78;;;-9.55;75.92
70103;BME280;57470;50.034;15.256;2024-01-11T07:03:36;100696.31;;;-9.52;77.64
70103;BME280;57470;50.034;15.256;2024-01-11T07:06:01;100684.31;;;-9.52;76.37
70103;BME280;57470;50.034;15.256;2024-01-11T07:08:28;100704.16;;;-9.49;76.84
70103;BME280;57470;50.034;15.256;2024-01-11T07:10:53;100707.25;;;-9.32;76.67
70103;BME280;57470;50.034;15.256;2024-01-11T07:13:19;100681.31;;;-9.65;77.43
70103;BME280;57470;50.034;15.256;2024-01-11T07:15:44;100644.16;;;-10.27;80.25
70103;BME280;57470;50.034;15.256;2024-01-11T07:18:10;100639.13;;;-10.24;81.09
70103;BME280;57470;50.034;15.256;2024-01-11T07:20:35;100672.13;;;-9.57;79.63
70103;BME280;57470;50.034;15.256;2024-01-11T07:23:00;100682.69;;;-9.48;78.45
70103;BME280;57470;50.034;15.256;2024-01-11T07:25:26;100685.28;;;-9.48;78.70
70103;BME280;57470;50.034;15.256;2024-01-11T07:27:51;100691.19;;;-9.24;78.74
70103;BME280;57470;50.034;15.256;2024-01-11T07:30:17;100706.66;;;-8.95;78.30
70103;BME280;57470;50.034;15.256;2024-01-11T07:32:44;100695.47;;;-8.94;77.68
70103;BME280;57470;50.034;15.256;2024-01-11T07:35:09;100732.78;;;-8.20;77.45
70103;BME280;57470;50.034;15.256;2024-01-11T07:37:37;100744.75;;;-6.41;72.56
70103;BME280;57470;50.034;15.256;2024-01-11T07:40:02;100646.38;;;-8.69;73.64
70103;BME280;57470;50.034;15.256;2024-01-11T07:42:28;100662.59;;;-8.73;78.59
70103;BME280;57470;50.034;15.256;2024-01-11T07:44:54;100649.59;;;-8.76;78.95
70103;BME280;57470;50.034;15.256;2024-01-11T07:47:20;100643.63;;;-8.75;80.68
70103;BME280;57470;50.034;15.256;2024-01-11T07:49:45;100651.00;;;-8.23;78.56
70103;BME280;57470;50.034;15.256;2024-01-11T07:52:10;100625.47;;;-8.80;81.20
70103;BME280;57470;50.034;15.256;2024-01-11T07:54:36;100642.72;;;-8.10;78.80
70103;BME280;57470;50.034;15.256;2024-01-11T07:57:01;100659.66;;;-7.86;78.11
70103;BME280;57470;50.034;15.256;2024-01-11T07:59:32;100660.34;;;-7.93;77.93
70103;BME280;57470;50.034;15.256;2024-01-11T08:01:57;100656.69;;;-8.02;78.51
70103;BME280;57470;50.034;15.256;2024-01-11T08:04:23;100689.59;;;-7.21;77.97
70103;BME280;57470;50.034;15.256;2024-01-11T08:06:48;100687.69;;;-7.30;77.36
70103;BME280;57470;50.034;15.256;2024-01-11T08:09:13;100675.78;;;-7.95;80.70
70103;BME280;57470;50.034;15.256;2024-01-11T08:11:39;100697.19;;;-6.90;78.89
70103;BME280;57470;50.034;15.256;2024-01-11T08:14:06;100683.19;;;-6.57;78.25
70103;BME280;57470;50.034;15.256;2024-01-11T08:16:31;100693.47;;;-5.64;76.37
70103;BME280;57470;50.034;15.256;2024-01-11T08:18:57;100697.34;;;-2.81;70.57
70103;BME280;57470;50.034;15.256;2024-01-11T08:21:22;100665.13;;;-2.95;67.80
70103;BME280;57470;50.034;15.256;2024-01-11T08:23:48;100662.09;;;-3.68;69.31
70103;BME280;57470;50.034;15.256;2024-01-11T08:26:14;100641.94;;;-4.78;70.97
70103;BME280;57470;50.034;15.256;2024-01-11T08:28:40;100586.31;;;-7.57;79.69
70103;BME280;57470;50.034;15.256;2024-01-11T08:31:06;100601.41;;;-7.36;82.98
70103;BME280;57470;50.034;15.256;2024-01-11T08:33:31;100592.09;;;-7.67;83.32
70103;BME280;57470;50.034;15.256;2024-01-11T08:35:57;100631.44;;;-6.09;83.08
70103;BME280;57470;50.034;15.256;2024-01-11T08:38:23;100641.50;;;-3.37;76.11
70103;BME280;57470;50.034;15.256;2024-01-11T08:40:49;100616.69;;;-2.64;70.54
70103;BME280;57470;50.034;15.256;2024-01-11T08:43:15;100617.66;;;-1.43;67.81
70103;BME280;57470;50.034;15.256;2024-01-11T08:45:40;100593.31;;;-1.96;67.28
70103;BME280;57470;50.034;15.256;2024-01-11T08:48:06;100613.28;;;-2.30;68.49
70103;BME280;57470;50.034;15.256;2024-01-11T08:50:31;100634.06;;;-1.02;65.78
70103;BME280;57470;50.034;15.256;2024-01-11T08:52:58;100620.06;;;-0.86;65.23
70103;BME280;57470;50.034;15.256;2024-01-11T08:55:24;100596.81;;;-1.97;67.12
70103;BME280;57470;50.034;15.256;2024-01-11T08:57:49;100600.72;;;-3.43;73.06
70103;BME280;57470;50.034;15.256;2024-01-11T09:00:15;100624.28;;;-3.11;72.16
70103;BME280;57470;50.034;15.256;2024-01-11T09:02:44;100629.63;;;-2.85;71.16
70103;BME280;57470;50.034;15.256;2024-01-11T09:05:10;100627.78;;;-4.27;73.75
70103;BME280;57470;50.034;15.256;2024-01-11T09:07:36;100605.44;;;-5.58;78.83
70103;BME280;57470;50.034;15.256;2024-01-11T09:10:02;100606.72;;;-5.87;82.41
70103;BME280;57470;50.034;15.256;2024-01-11T09:12:28;100601.09;;;-5.60;81.82
70103;BME280;57470;50.034;15.256;2024-01-11T09:14:53;100616.91;;;-5.41;81.98
70103;BME280;57470;50.034;15.256;2024-01-11T09:17:19;100627.13;;;-4.02;79.41
70103;BME280;57470;50.034;15.256;2024-01-11T09:19:45;100640.53;;;-3.49;77.05
70103;BME280;57470;50.034;15.256;2024-01-11T09:22:10;100645.06;;;-3.19;75.81
70103;BME280;57470;50.034;15.256;2024-01-11T09:24:36;100660.72;;;-3.11;76.44
70103;BME280;57470;50.034;15.256;2024-01-11T09:27:01;100675.69;;;-2.69;75.26
70103;BME280;57470;50.034;15.256;2024-01-11T09:29:28;100667.03;;;-2.62;75.21
70103;BME280;57470;50.034;15.256;2024-01-11T09:31:53;100641.34;;;-4.54;81.65
70103;BME280;57470;50.034;15.256;2024-01-11T09:34:19;100631.84;;;-4.54;82.18
70103;BME280;57470;50.034;15.256;2024-01-11T09:36:44;100634.16;;;-3.95;83.46
70103;BME280;57470;50.034;15.256;2024-01-11T09:39:10;100636.47;;;-3.09;80.04
70103;BME280;57470;50.034;15.256;2024-01-11T09:41:41;100629.50;;;-3.14;77.96
70103;BME280;57470;50.034;15.256;2024-01-11T09:44:08;100628.78;;;-2.81;76.97
70103;BME280;57470;50.034;15.256;2024-01-11T09:46:34;100631.44;;;-2.63;76.17
70103;BME280;57470;50.034;15.256;2024-01-11T09:49:00;100634.00;;;-2.74;76.46
70103;BME280;57470;50.034;15.256;2024-01-11T09:51:29;100626.25;;;-2.57;76.07
70103;BME280;57470;50.034;15.256;2024-01-11T09:53:55;100619.06;;;-3.17;77.91
70103;BME280;57470;50.034;15.256;2024-01-11T09:56:22;100639.25;;;-2.69;76.90
70103;BME280;57470;50.034;15.256;2024-01-11T09:58:49;100634.16;;;-2.25;75.94
70103;BME280;57470;50.034;15.256;2024-01-11T10:01:15;100641.13;;;-1.49;76.04
70103;BME280;57470;50.034;15.256;2024-01-11T10:03:42;100613.31;;;-2.17;76.29
70103;BME280;57470;50.034;15.256;2024-01-11T10:06:08;100593.16;;;-2.96;78.30
70103;BME280;57470;50.034;15.256;2024-01-11T10:08:35;100615.69;;;-2.98;81.07
70103;BME280;57470;50.034;15.256;2024-01-11T10:11:01;100613.28;;;-2.23;78.26
70103;BME280;57470;50.034;15.256;2024-01-11T10:13:30;100604.56;;;-2.53;80.09
70103;BME280;57470;50.034;15.256;2024-01-11T10:16:09;100607.03;;;-2.91;81.29
70103;BME280;57470;50.034;15.256;2024-01-11T10:18:35;100589.84;;;-2.19;78.26
70103;BME280;57470;50.034;15.256;2024-01-11T10:21:02;100605.50;;;-1.96;78.72
70103;BME280;57470;50.034;15.256;2024-01-11T10:23:28;100611.59;;;-1.73;78.05
70103;BME280;57470;50.034;15.256;2024-01-11T10:25:56;100623.63;;;-0.99;77.87
70103;BME280;57470;50.034;15.256;2024-01-11T10:28:22;100609.44;;;-0.46;75.64
70103;BME280;57470;50.034;15.256;2024-01-11T10:30:50;100594.75;;;-0.65;75.42
70103;BME280;57470;50.034;15.256;2024-01-11T10:33:19;100583.69;;;-1.28;76.21
70103;BME280;57470;50.034;15.256;2024-01-11T10:35:46;100588.09;;;-1.68;76.96
70103;BME280;57470;50.034;15.256;2024-01-11T10:38:11;100599.09;;;-0.64;77.65
70103;BME280;57470;50.034;15.256;2024-01-11T10:40:38;100596.28;;;-0.29;74.55
70103;BME280;57470;50.034;15.256;2024-01-11T10:43:10;100590.03;;;-0.12;74.03
70103;BME280;57470;50.034;15.256;2024-01-11T10:45:41;100585.47;;;-1.50;77.22
70103;BME280;57470;50.034;15.256;2024-01-11T10:48:15;100614.03;;;-0.94;77.34
70103;BME280;57470;50.034;15.256;2024-01-11T10:50:43;100619.34;;;-1.26;79.00
70103;BME280;57470;50.034;15.256;2024-01-11T10:53:43;100614.38;;;-0.01;76.14
70103;BME280;57470;50.034;15.256;2024-01-11T10:56:13;100603.66;;;-1.21;77.65
70103;BME280;57470;50.034;15.256;2024-01-11T10:58:43;100585.41;;;-1.33;77.57
70103;BME280;57470;50.034;15.256;2024-01-11T11:01:12;100587.06;;;-1.02;77.91
70103;BME280;57470;50.034;15.256;2024-01-11T11:03:38;100595.28;;;-0.13;78.03
70103;BME280;57470;50.034;15.256;2024-01-11T11:06:07;100567.19;;;-1.48;79.08
70103;BME280;57470;50.034;15.256;2024-01-11T11:08:33;100563.03;;;-0.12;78.29
70103;BME280;57470;50.034;15.256;2024-01-11T11:11:03;100560.97;;;0.23;76.91
70103;BME280;57470;50.034;15.256;2024-01-11T11:13:31;100548.44;;;-0.42;77.71
70103;BME280;57470;50.034;15.256;2024-01-11T11:15:57;100558.03;;;0.55;75.15
70103;BME280;57470;50.034;15.256;2024-01-11T11:18:23;100535.34;;;-0.36;75.37
70103;BME280;57470;50.034;15.256;2024-01-11T11:20:50;100543.25;;;-0.47;78.54
70103;BME280;57470;50.034;15.256;2024-01-11T11:23:17;100537.41;;;-0.91;79.05
70103;BME280;57470;50.034;15.256;2024-01-11T11:25:47;100520.06;;;-1.01;80.55
70103;BME280;57470;50.034;15.256;2024-01-11T11:28:14;100513.25;;;-1.39;81.01
70103;BME280;57470;50.034;15.256;2024-01-11T11:30:41;100508.16;;;-1.71;81.59
70103;BME280;57470;50.034;15.256;2024-01-11T11:33:10;100513.44;;;-0.23;79.39
70103;BME280;57470;50.034;15.256;2024-01-11T11:35:37;100503.25;;;-0.61;77.97
70103;BME280;57470;50.034;15.256;2024-01-11T11:38:03;100488.09;;;-1.60;80.20
70103;BME280;57470;50.034;15.256;2024-01-11T11:40:38;100480.22;;;-1.41;80.15
70103;BME280;57470;50.034;15.256;2024-01-11T11:43:10;100465.50;;;-1.53;80.12
70103;BME280;57470;50.034;15.256;2024-01-11T11:45:37;100485.78;;;-0.53;79.12
70103;BME280;57470;50.034;15.256;2024-01-11T11:53:36;100472.13;;;0.13;75.57
70103;BME280;57470;50.034;15.256;2024-01-11T11:56:03;100478.31;;;0.09;74.56
70103;BME280;57470;50.034;15.256;2024-01-11T11:58:29;100478.94;;;0.30;74.54
70103;BME280;57470;50.034;15.256;2024-01-11T12:00:55;100455.69;;;0.02;74.47
70103;BME280;57470;50.034;15.256;2024-01-11T12:03:29;100449.91;;;0.52;74.75
70103;BME280;57470;50.034;15.256;2024-01-11T12:06:00;100447.94;;;0.69;73.44
70103;BME280;57470;50.034;15.256;2024-01-11T12:08:26;100441.81;;;0.70;73.19
70103;BME280;57470;50.034;15.256;2024-01-11T12:10:52;100435.63;;;0.75;73.30
70103;BME280;57470;50.034;15.256;2024-01-11T12:13:18;100423.38;;;0.78;72.51
70103;BME280;57470;50.034;15.256;2024-01-11T12:15:44;100420.03;;;0.66;72.21
70103;BME280;57470;50.034;15.256;2024-01-11T12:18:10;100432.72;;;0.98;72.31
70103;BME280;57470;50.034;15.256;2024-01-11T12:20:35;100430.13;;;0.94;72.56
70103;BME280;57470;50.034;15.256;2024-01-11T12:23:01;100426.94;;;0.72;72.75
70103;BME280;57470;50.034;15.256;2024-01-11T12:25:28;100435.31;;;1.55;72.09
70103;BME280;57470;50.034;15.256;2024-01-11T12:27:54;100425.50;;;1.12;71.89
70103;BME280;57470;50.034;15.256;2024-01-11T12:30:25;100424.47;;;1.23;71.26
70103;BME280;57470;50.034;15.256;2024-01-11T12:32:50;100424.78;;;1.03;71.29
70103;BME280;57470;50.034;15.256;2024-01-11T12:35:17;100425.53;;;1.11;71.55
70103;BME280;57470;50.034;15.256;2024-01-11T12:38:02;100419.69;;;0.91;71.84
70103;BME280;57470;50.034;15.256;2024-01-11T12:40:34;100417.00;;;0.32;74.92
70103;BME280;57470;50.034;15.256;2024-01-11T12:43:00;100415.00;;;0.51;75.29